createdAt,value
2019-06-07T01:55:45.001Z,66.06
2019-06-07T01:58:12.105Z,66.11
2019-06-07T02:00:38.862Z,65.91
2019-06-07T02:03:05.493Z,65.54
2019-06-07T02:05:32.519Z,65.59
2019-06-07T02:07:59.279Z,65.59
2019-06-07T02:10:29.926Z,65.44
2019-06-07T02:12:54.805Z,65.51
2019-06-07T03:12:14.526Z,68.42
2019-06-07T03:47:59.071Z,70.92
2019-06-07T03:50:28.323Z,71.11
2019-06-07T03:52:54.392Z,71.13
2019-06-07T03:55:20.937Z,71.62
2019-06-07T03:58:29.914Z,70.64
2019-06-07T04:00:16.123Z,70.78
2019-06-07T04:02:42.783Z,71.42
2019-06-07T04:05:09.465Z,72.29
2019-06-07T04:07:39.254Z,72.00
2019-06-07T04:10:08.258Z,72.13
2019-06-07T04:12:40.015Z,71.62
2019-06-07T04:15:05.119Z,71.83
2019-06-07T04:17:33.849Z,71.62
2019-06-07T04:20:00.073Z,71.67
2019-06-07T04:22:26.555Z,71.45
2019-06-07T04:24:53.280Z,71.13
2019-06-07T04:27:19.786Z,70.87
2019-06-07T04:30:05.837Z,71.21
2019-06-07T04:32:14.956Z,71.78
2019-06-07T04:34:43.255Z,72.07
2019-06-07T04:37:11.406Z,70.86
2019-06-07T04:39:44.643Z,71.51
2019-06-07T04:42:09.063Z,72.54
2019-06-07T04:44:39.293Z,71.18
2019-06-07T04:47:05.873Z,71.14
2019-06-07T04:49:37.239Z,72.06
2019-06-07T04:52:03.868Z,71.15
2019-06-07T04:54:31.492Z,70.21
2019-06-07T04:56:59.224Z,69.77
2019-06-07T05:00:04.282Z,69.55
2019-06-07T05:01:54.821Z,69.33
2019-06-07T05:04:21.407Z,69.55
2019-06-07T05:06:48.142Z,69.79
2019-06-07T05:09:14.870Z,69.82
2019-06-07T05:11:44.909Z,69.33
2019-06-07T05:14:10.309Z,69.51
2019-06-07T05:16:40.675Z,69.53
2019-06-07T05:19:06.247Z,69.12
2019-06-07T05:21:55.999Z,69.62
2019-06-07T05:24:09.180Z,69.17
2019-06-07T05:26:30.521Z,69.20
2019-06-07T05:28:57.972Z,69.11
2019-06-07T05:31:24.940Z,68.40
2019-06-07T05:33:51.711Z,68.65
2019-06-07T05:36:18.633Z,67.78
2019-06-07T05:38:45.505Z,67.27
2019-06-07T05:41:12.297Z,65.66
2019-06-07T05:43:44.708Z,65.30
2019-06-07T05:46:07.573Z,64.59
2019-06-07T05:48:36.675Z,63.53
2019-06-07T05:51:03.803Z,63.92
2019-06-07T05:53:31.708Z,64.12
2019-06-07T05:55:59.234Z,63.97
2019-06-07T05:58:26.007Z,61.88
2019-06-07T06:00:52.677Z,61.55
2019-06-07T06:03:19.454Z,62.05
2019-06-07T06:05:54.597Z,61.95
2019-06-07T06:08:14.571Z,62.15
2019-06-07T06:10:45.228Z,61.53
2019-06-07T06:13:09.825Z,60.95
2019-06-07T06:15:45.269Z,60.65
2019-06-07T06:18:05.202Z,60.55
2019-06-07T06:20:34.824Z,61.75
2019-06-07T06:23:00.537Z,60.97
2019-06-07T06:25:32.983Z,60.21
2019-06-07T06:28:10.055Z,59.62
2019-06-07T06:30:24.348Z,59.96
2019-06-07T06:32:57.746Z,61.52
2019-06-07T06:35:19.790Z,61.32
2019-06-07T06:37:52.732Z,60.77
2019-06-07T06:40:15.995Z,59.16
2019-06-07T06:42:44.881Z,59.83
2019-06-07T06:45:12.316Z,59.02
2019-06-07T06:47:40.682Z,58.65
2019-06-07T06:50:08.795Z,57.71
2019-06-07T06:52:35.432Z,58.08
2019-06-07T06:55:04.573Z,59.65
2019-06-07T06:57:31.272Z,58.48
2019-06-07T06:59:57.914Z,57.10
2019-06-07T07:02:24.638Z,54.87
2019-06-07T07:04:53.413Z,55.03
2019-06-07T07:07:20.345Z,53.01
2019-06-07T07:09:51.516Z,53.95
2019-06-07T07:12:16.049Z,51.99
2019-06-07T07:14:45.587Z,53.45
2019-06-07T07:17:11.343Z,51.15
2019-06-07T07:19:38.146Z,52.06
2019-06-07T07:22:05.147Z,50.00
2019-06-07T07:24:31.824Z,49.09
2019-06-07T07:26:58.687Z,47.81
2019-06-07T07:29:27.160Z,48.22
2019-06-07T07:31:56.250Z,46.65
2019-06-07T07:34:33.691Z,45.95
2019-06-07T07:36:57.681Z,45.95
2019-06-07T07:39:19.193Z,45.58
2019-06-07T07:42:10.984Z,45.24
2019-06-07T07:44:14.376Z,46.97
2019-06-07T07:46:41.166Z,44.47
2019-06-07T07:49:09.175Z,44.82
2019-06-07T07:51:35.909Z,46.28
2019-06-07T07:54:10.920Z,45.40
2019-06-07T07:56:31.497Z,43.72
2019-06-07T07:59:01.841Z,45.27
2019-06-07T08:01:26.947Z,43.26
2019-06-07T08:03:54.894Z,43.44
2019-06-07T08:06:23.656Z,42.36
2019-06-07T08:08:51.239Z,40.55
2019-06-07T08:11:18.358Z,41.87
2019-06-07T08:13:45.744Z,42.76
2019-06-07T08:16:16.487Z,41.21
2019-06-07T08:18:41.382Z,41.14
2019-06-07T08:21:23.714Z,42.71
2019-06-07T08:23:36.879Z,42.24
2019-06-07T08:26:03.736Z,40.67
2019-06-07T08:28:30.393Z,42.48
2019-06-07T08:31:04.097Z,43.58
2019-06-07T08:33:26.897Z,39.81
2019-06-07T08:38:27.633Z,38.15
2019-06-07T08:40:56.830Z,38.66
2019-06-07T08:43:21.241Z,41.27
2019-06-07T08:45:51.255Z,40.86
2019-06-07T08:48:27.791Z,41.68
2019-06-07T08:50:47.445Z,42.48
2019-06-07T08:53:14.229Z,41.12
2019-06-07T08:55:41.075Z,43.35
2019-06-07T08:58:08.947Z,40.27
2019-06-07T09:00:47.219Z,42.07
2019-06-07T09:03:07.186Z,39.78
2019-06-07T09:05:33.424Z,41.52
2019-06-07T09:08:23.823Z,40.25
2019-06-07T09:10:28.903Z,40.82
2019-06-07T09:13:00.360Z,39.91
2019-06-07T09:15:24.558Z,37.59
2019-06-07T09:20:36.297Z,38.49
2019-06-07T09:22:49.552Z,38.17
2019-06-07T09:25:21.147Z,38.13
2019-06-07T09:27:45.579Z,39.91
2019-06-07T09:30:18.199Z,38.84
2019-06-07T09:32:41.248Z,39.65
2019-06-07T09:35:16.346Z,38.83
2019-06-07T09:38:04.273Z,40.02
2019-06-07T09:40:21.706Z,39.47
2019-06-07T09:42:34.991Z,41.82
2019-06-07T09:45:06.559Z,42.84
2019-06-07T09:47:32.833Z,42.79
2019-06-07T09:50:06.013Z,43.50
2019-06-07T09:52:28.154Z,44.29
2019-06-07T09:55:09.211Z,45.46
2019-06-07T09:57:23.643Z,45.39
2019-06-07T09:59:50.249Z,45.16
2019-06-07T10:02:17.368Z,43.72
2019-06-07T10:04:46.005Z,44.36
2019-06-07T10:07:30.809Z,44.61
2019-06-07T10:12:09.810Z,45.00
2019-06-07T10:14:36.517Z,45.23
2019-06-07T10:17:03.467Z,46.00
2019-06-07T10:19:30.007Z,46.37
2019-06-07T10:21:56.649Z,46.28
2019-06-07T10:24:24.325Z,45.63
2019-06-07T10:26:50.881Z,43.74
2019-06-07T10:29:17.453Z,43.86
2019-06-07T10:31:44.165Z,45.08
2019-06-07T10:34:11.037Z,42.18
2019-06-07T10:36:39.883Z,42.88
2019-06-07T10:39:11.219Z,43.52
2019-06-07T10:41:39.304Z,43.03
2019-06-07T10:44:07.189Z,43.32
2019-06-07T10:46:34.048Z,42.96
2019-06-07T10:49:01.645Z,42.52
2019-06-07T10:51:28.659Z,42.96
2019-06-07T10:53:56.024Z,41.13
2019-06-07T10:56:22.747Z,42.50
2019-06-07T10:58:49.510Z,43.66
2019-06-07T11:01:16.227Z,42.99
2019-06-07T11:03:42.995Z,41.69
2019-06-07T11:06:10.151Z,42.82
2019-06-07T11:08:36.790Z,43.40
2019-06-07T11:11:03.856Z,42.13
2019-06-07T11:13:30.730Z,41.94
2019-06-07T11:15:57.836Z,40.59
2019-06-07T11:18:25.052Z,42.07
2019-06-07T11:20:51.603Z,41.23
2019-06-07T11:23:19.668Z,41.10
2019-06-07T11:25:46.371Z,41.08
2019-06-07T11:28:14.704Z,42.58
2019-06-07T11:30:41.917Z,41.11
2019-06-07T11:33:08.548Z,41.25
2019-06-07T11:35:35.581Z,41.86
2019-06-07T11:38:02.543Z,42.61
2019-06-07T11:40:35.472Z,43.38
2019-06-07T11:42:58.398Z,39.94
2019-06-07T11:45:25.532Z,41.73
2019-06-07T11:47:52.433Z,43.47
2019-06-07T11:50:19.237Z,41.65
2019-06-07T11:52:46.559Z,42.91
2019-06-07T11:55:15.827Z,42.12
2019-06-07T11:57:43.231Z,41.50
2019-06-07T12:00:13.870Z,41.02
2019-06-07T12:02:40.983Z,41.07
2019-06-07T12:05:10.356Z,43.22
2019-06-07T12:07:36.906Z,41.18
2019-06-07T12:10:10.586Z,41.27
2019-06-07T12:12:37.663Z,40.73
2019-06-07T12:15:08.961Z,39.15
2019-06-07T12:17:39.884Z,39.82
2019-06-07T12:20:09.324Z,39.60
2019-06-07T12:22:36.427Z,40.82
2019-06-07T12:25:06.040Z,40.61
2019-06-07T12:27:32.922Z,37.55
2019-06-07T12:29:59.584Z,41.03
2019-06-07T12:32:26.195Z,40.35
2019-06-07T12:34:52.663Z,40.53
2019-06-07T12:37:22.444Z,37.89
2019-06-07T12:39:47.690Z,37.02
2019-06-07T12:42:14.943Z,38.31
2019-06-07T12:44:41.705Z,39.90
2019-06-07T12:47:08.332Z,37.39
2019-06-07T12:49:34.867Z,38.06
2019-06-07T12:52:02.792Z,37.54
2019-06-07T12:54:30.712Z,36.03
2019-06-07T12:56:57.500Z,39.31
2019-06-07T12:59:24.386Z,36.75
2019-06-07T13:01:51.159Z,36.29
2019-06-07T13:04:20.441Z,37.19
2019-06-07T13:06:48.167Z,36.62
2019-06-07T13:09:15.681Z,39.91
2019-06-07T13:11:42.614Z,37.41
2019-06-07T13:14:09.195Z,37.58
2019-06-07T13:16:35.679Z,37.53
2019-06-07T13:19:04.525Z,38.55
2019-06-07T13:21:31.307Z,37.76
2019-06-07T13:23:58.006Z,38.32
2019-06-07T13:26:25.116Z,37.88
2019-06-07T13:28:52.146Z,37.99
2019-06-07T13:31:18.876Z,35.67
2019-06-07T13:33:46.010Z,35.97
2019-06-07T13:36:12.753Z,36.11
2019-06-07T13:38:39.349Z,35.94
2019-06-07T13:41:06.308Z,38.14
2019-06-07T13:43:32.987Z,37.06
2019-06-07T13:45:59.747Z,37.34
2019-06-07T13:48:27.954Z,36.55
2019-06-07T13:50:55.049Z,38.18
2019-06-07T13:53:23.144Z,37.85
2019-06-07T13:55:50.043Z,36.32
2019-06-07T13:58:18.491Z,37.51
2019-06-07T14:00:44.953Z,37.52
2019-06-07T14:03:11.599Z,37.86
2019-06-07T14:05:40.027Z,37.81
2019-06-07T14:08:06.868Z,36.76
2019-06-07T14:10:33.630Z,37.64
2019-06-07T14:13:00.253Z,37.38
2019-06-07T14:15:28.187Z,35.35
2019-06-07T14:17:55.504Z,35.90
2019-06-07T14:20:26.780Z,36.19
2019-06-07T14:22:54.330Z,36.78
2019-06-07T14:25:21.315Z,36.98
2019-06-07T14:27:47.772Z,37.38
2019-06-07T14:30:17.214Z,37.05
2019-06-07T14:32:43.762Z,37.68
2019-06-07T14:35:10.861Z,38.13
2019-06-07T14:37:39.060Z,38.29
2019-06-07T14:40:08.469Z,37.36
2019-06-07T14:42:35.251Z,39.16
2019-06-07T14:45:06.116Z,38.14
2019-06-07T14:47:34.215Z,37.87
2019-06-07T14:50:01.103Z,40.84
2019-06-07T14:52:28.470Z,39.44
2019-06-07T14:54:55.810Z,39.50
2019-06-07T14:57:22.482Z,42.71
2019-06-07T14:59:49.389Z,40.31
2019-06-07T15:02:16.114Z,40.64
2019-06-07T15:04:44.866Z,41.31
2019-06-07T15:07:14.240Z,41.82
2019-06-07T15:09:41.253Z,42.36
2019-06-07T15:12:23.903Z,42.05
2019-06-07T15:14:37.664Z,41.08
2019-06-07T15:17:04.733Z,43.13
2019-06-07T15:19:33.691Z,42.56
2019-06-07T15:21:59.984Z,42.97
2019-06-07T15:24:28.019Z,42.22
2019-06-07T15:26:54.647Z,43.85
2019-06-07T15:29:23.163Z,44.23
2019-06-07T15:31:49.881Z,43.22
2019-06-07T15:34:16.394Z,43.49
2019-06-07T15:36:42.851Z,43.18
2019-06-07T15:39:10.165Z,43.97
2019-06-07T15:41:37.480Z,44.15
2019-06-07T15:44:05.044Z,44.11
2019-06-07T15:46:33.680Z,43.46
2019-06-07T15:49:01.286Z,44.11
2019-06-07T15:51:28.115Z,45.06
2019-06-07T15:53:54.829Z,43.77
2019-06-07T15:56:21.503Z,43.80
2019-06-07T15:58:48.042Z,42.74
2019-06-07T16:01:15.066Z,45.15
2019-06-07T16:03:42.151Z,44.90
2019-06-07T16:06:08.907Z,42.22
2019-06-07T16:08:36.320Z,42.05
2019-06-07T16:11:03.385Z,42.66
2019-06-07T16:13:29.997Z,42.69
2019-06-07T16:15:56.463Z,42.55
2019-06-07T16:18:23.124Z,44.61
2019-06-07T16:20:49.644Z,43.61
2019-06-07T16:23:18.315Z,42.32
2019-06-07T16:25:45.014Z,41.32
2019-06-07T16:28:11.744Z,41.68
2019-06-07T16:30:38.607Z,42.19
2019-06-07T16:33:05.274Z,43.21
2019-06-07T16:35:31.901Z,43.43
2019-06-07T16:37:58.500Z,43.98
2019-06-07T16:40:25.011Z,44.72
2019-06-07T16:42:52.070Z,44.98
2019-06-07T16:45:19.565Z,44.94
2019-06-07T16:47:47.773Z,45.78
2019-06-07T16:50:15.210Z,45.45
2019-06-07T16:52:42.138Z,45.71
2019-06-07T16:55:09.963Z,46.03
2019-06-07T16:57:36.737Z,46.30
2019-06-07T17:00:11.665Z,46.61
2019-06-07T17:02:38.507Z,46.50
2019-06-07T17:05:07.294Z,46.87
2019-06-07T17:07:34.702Z,46.98
2019-06-07T17:10:06.563Z,47.35
2019-06-07T17:12:33.289Z,47.53
2019-06-07T17:14:59.929Z,47.31
2019-06-07T17:17:26.572Z,48.04
2019-06-07T17:19:53.137Z,47.87
2019-06-07T17:22:19.641Z,48.06
2019-06-07T17:24:47.505Z,48.70
2019-06-07T17:27:14.282Z,48.27
2019-06-07T17:29:41.979Z,48.87
2019-06-07T17:32:08.626Z,49.38
2019-06-07T17:34:35.310Z,49.75
2019-06-07T17:37:01.939Z,49.75
2019-06-07T17:39:28.656Z,50.04
2019-06-07T17:42:02.017Z,50.19
2019-06-07T17:44:24.068Z,50.38
2019-06-07T17:46:51.794Z,50.67
2019-06-07T17:49:18.740Z,50.89
2019-06-07T17:51:45.871Z,51.42
2019-06-07T17:54:12.625Z,51.42
2019-06-07T17:56:39.374Z,51.41
2019-06-07T17:59:05.931Z,50.78
2019-06-07T18:01:41.175Z,50.74
2019-06-07T18:04:01.365Z,50.94
2019-06-07T18:06:28.402Z,51.24
2019-06-07T18:08:57.386Z,51.38
2019-06-07T18:11:27.625Z,51.79
2019-06-07T18:14:08.424Z,51.78
2019-06-07T18:16:23.266Z,51.55
2019-06-07T18:18:50.684Z,51.79
2019-06-07T18:21:17.507Z,52.01
2019-06-07T18:23:44.278Z,52.59
2019-06-07T18:26:10.971Z,52.69
2019-06-07T18:28:37.729Z,52.04
2019-06-07T18:31:04.653Z,53.12
2019-06-07T18:33:31.450Z,53.12
2019-06-07T18:36:06.565Z,54.04
2019-06-07T18:38:33.441Z,54.86
2019-06-07T18:41:00.275Z,55.45
2019-06-07T18:43:27.029Z,55.46
2019-06-07T18:45:53.780Z,56.05
2019-06-07T18:48:20.387Z,56.32
2019-06-07T18:50:48.445Z,56.09
2019-06-07T18:53:15.425Z,54.45
2019-06-07T18:55:43.429Z,54.45
2019-06-07T18:58:10.207Z,54.16
2019-06-07T19:00:37.222Z,54.87
2019-06-07T19:03:04.403Z,56.42
2019-06-07T19:05:31.838Z,56.89
2019-06-07T19:07:59.848Z,56.89
2019-06-07T19:10:27.855Z,57.47
2019-06-07T19:12:57.285Z,56.60
2019-06-07T19:15:26.348Z,56.50
2019-06-07T19:17:54.034Z,56.71
2019-06-07T19:20:22.046Z,57.91
2019-06-07T19:22:50.125Z,55.86
2019-06-07T19:25:17.918Z,55.46
2019-06-07T19:27:45.399Z,55.63
2019-06-07T19:30:13.190Z,55.74
2019-06-07T19:32:40.036Z,55.67
2019-06-07T19:35:07.410Z,55.84
2019-06-07T19:37:34.292Z,55.51
2019-06-07T19:40:02.822Z,55.31
2019-06-07T19:42:29.717Z,55.55
2019-06-07T19:45:08.623Z,55.53
2019-06-07T19:47:24.878Z,55.68
2019-06-07T19:49:52.963Z,55.72
2019-06-07T19:52:20.199Z,56.34
2019-06-07T19:54:46.784Z,57.26
2019-06-07T19:57:13.526Z,56.72
2019-06-07T19:59:40.160Z,56.83
2019-06-07T20:02:07.399Z,57.36
2019-06-07T20:04:34.220Z,58.87
2019-06-07T20:07:03.491Z,59.58
2019-06-07T20:09:31.224Z,59.52
2019-06-07T20:11:58.470Z,59.97
2019-06-07T20:14:25.136Z,59.70
2019-06-07T20:16:51.814Z,59.54
2019-06-07T20:19:18.635Z,59.34
2019-06-07T20:21:45.511Z,60.51
2019-06-07T20:24:26.312Z,60.16
2019-06-07T20:26:41.177Z,61.15
2019-06-07T20:29:24.854Z,61.40
2019-06-07T20:31:36.485Z,61.60
2019-06-07T20:34:04.230Z,61.88
2019-06-07T20:36:32.291Z,63.63
2019-06-07T20:39:00.152Z,63.85
2019-06-07T20:41:27.053Z,63.28
2019-06-07T20:43:53.856Z,63.53
2019-06-07T20:46:20.450Z,63.69
2019-06-07T20:48:47.193Z,63.32
2019-06-07T20:51:14.122Z,63.94
2019-06-07T20:53:40.860Z,64.32
2019-06-07T20:56:09.172Z,64.74
2019-06-07T20:58:36.483Z,65.34
2019-06-07T21:01:03.349Z,65.44
2019-06-07T21:03:30.082Z,66.45
2019-06-07T21:05:56.809Z,65.78
2019-06-07T21:08:23.634Z,65.69
2019-06-07T21:10:50.327Z,66.34
2019-06-07T21:13:17.244Z,65.87
2019-06-07T21:15:48.784Z,67.31
2019-06-07T21:18:19.608Z,66.75
2019-06-07T21:20:41.454Z,66.88
2019-06-07T21:23:09.018Z,66.83
2019-06-07T21:25:35.823Z,66.82
2019-06-07T21:28:03.094Z,67.25
2019-06-07T21:30:30.453Z,67.08
2019-06-07T21:32:57.178Z,68.05
2019-06-07T21:35:23.979Z,69.29
2019-06-07T21:37:50.790Z,69.16
2019-06-07T21:40:17.596Z,68.96
2019-06-07T21:42:44.719Z,69.05
2019-06-07T21:45:13.517Z,69.10
2019-06-07T21:47:40.463Z,69.29
2019-06-07T21:50:08.718Z,69.36
2019-06-07T21:52:35.741Z,69.31
2019-06-07T21:55:05.050Z,69.71
2019-06-07T21:57:31.778Z,69.77
2019-06-07T21:59:58.320Z,69.65
2019-06-07T22:02:24.990Z,69.12
2019-06-07T22:04:51.832Z,70.02
2019-06-07T22:07:18.600Z,71.36
2019-06-07T22:09:45.454Z,69.82
2019-06-07T22:12:12.195Z,69.67
2019-06-07T22:14:39.094Z,69.94
2019-06-07T22:17:06.138Z,70.02
2019-06-07T22:19:33.072Z,69.98
2019-06-07T22:22:02.986Z,70.93
2019-06-07T22:24:28.625Z,70.80
2019-06-07T22:26:55.460Z,70.24
2019-06-07T22:29:22.627Z,70.32
2019-06-07T22:31:49.882Z,71.31
2019-06-07T22:34:16.884Z,71.79
2019-06-07T22:36:44.094Z,72.67
2019-06-07T22:39:11.968Z,72.56
2019-06-07T22:41:38.804Z,71.83
2019-06-07T22:44:06.903Z,71.19
2019-06-07T22:46:37.718Z,72.20
2019-06-07T22:49:02.709Z,73.44
2019-06-07T22:51:29.552Z,73.46
2019-06-07T22:53:56.216Z,72.32
2019-06-07T22:56:30.757Z,71.89
2019-06-07T22:58:57.676Z,71.77
2019-06-07T23:01:24.517Z,71.79
2019-06-07T23:03:51.209Z,71.92
2019-06-07T23:06:18.966Z,72.11
2019-06-07T23:08:46.091Z,72.58
2019-06-07T23:11:13.299Z,73.73
2019-06-07T23:13:40.034Z,73.73
2019-06-07T23:16:06.633Z,72.96
2019-06-07T23:18:33.333Z,72.57
2019-06-07T23:20:59.907Z,72.76
2019-06-07T23:23:26.500Z,72.65
2019-06-07T23:25:53.197Z,72.07
2019-06-07T23:28:20.672Z,72.55
2019-06-07T23:30:47.498Z,72.70
2019-06-07T23:33:14.854Z,72.22
2019-06-07T23:35:41.695Z,72.00
2019-06-07T23:38:08.358Z,72.44
2019-06-07T23:40:35.008Z,72.10
2019-06-07T23:43:01.979Z,72.15
2019-06-07T23:45:30.041Z,73.00
2019-06-07T23:47:56.805Z,73.78
2019-06-07T23:50:23.482Z,73.14
2019-06-07T23:52:50.032Z,73.99
2019-06-07T23:55:17.917Z,74.76
2019-06-07T23:57:44.885Z,73.95
